createdAt,value
2023-05-14T00:02:27.659Z,92.90
2023-05-14T00:05:49.949Z,92.70
2023-05-14T00:09:13.223Z,92.70
2023-05-14T00:12:35.550Z,92.70
2023-05-14T00:15:57.790Z,92.60
2023-05-14T00:19:22.467Z,92.50
2023-05-14T00:22:44.858Z,92.50
2023-05-14T00:26:07.264Z,92.40
2023-05-14T00:29:29.822Z,92.30
2023-05-14T00:32:52.152Z,92.30
2023-05-14T00:36:14.489Z,92.30
2023-05-14T00:39:37.066Z,92.30
2023-05-14T00:42:59.481Z,92.20
2023-05-14T00:46:22.669Z,92.20
2023-05-14T00:49:46.389Z,92.10
2023-05-14T00:53:10.676Z,92.20
2023-05-14T00:56:34.138Z,92.10
2023-05-14T00:59:56.642Z,92.10
2023-05-14T01:03:19.026Z,92.00
2023-05-14T01:07:08.594Z,92.00
2023-05-14T01:10:54.214Z,91.90
2023-05-14T01:14:29.256Z,91.90
2023-05-14T01:17:59.324Z,91.90
2023-05-14T01:21:40.361Z,91.80
2023-05-14T01:25:02.771Z,91.80
2023-05-14T01:28:35.002Z,91.80
2023-05-14T01:32:01.455Z,91.80
2023-05-14T01:35:29.179Z,91.70
2023-05-14T01:38:52.255Z,91.70
2023-05-14T01:42:14.857Z,91.70
2023-05-14T01:45:37.261Z,91.70
2023-05-14T01:49:00.574Z,91.70
2023-05-14T01:52:22.887Z,91.70
2023-05-14T01:55:45.158Z,91.60
2023-05-14T01:59:07.526Z,91.60
2023-05-14T02:02:29.958Z,91.70
2023-05-14T02:05:52.262Z,91.60
2023-05-14T02:09:14.532Z,91.60
2023-05-14T02:12:36.896Z,91.60
2023-05-14T02:15:59.148Z,91.50
2023-05-14T02:19:21.423Z,91.60
2023-05-14T02:22:46.326Z,91.50
2023-05-14T02:26:10.032Z,91.60
2023-05-14T02:29:32.349Z,91.60
2023-05-14T02:32:54.715Z,91.60
2023-05-14T02:36:17.076Z,91.60
2023-05-14T02:39:39.800Z,91.60
2023-05-14T02:43:02.074Z,91.50
2023-05-14T02:46:24.720Z,91.60
2023-05-14T02:49:47.095Z,91.60
2023-05-14T02:53:09.369Z,91.60
2023-05-14T02:56:31.676Z,91.60
2023-05-14T02:59:53.907Z,91.60
2023-05-14T03:03:16.601Z,91.60
2023-05-14T03:06:39.326Z,91.60
2023-05-14T03:10:01.660Z,91.60
2023-05-14T03:13:23.903Z,91.70
2023-05-14T03:16:46.299Z,91.60
2023-05-14T03:20:08.995Z,91.70
2023-05-14T03:23:35.089Z,91.60
2023-05-14T03:26:57.313Z,91.70
2023-05-14T03:30:19.560Z,91.70
2023-05-14T03:33:41.929Z,91.70
2023-05-14T03:37:04.459Z,91.70
2023-05-14T03:40:26.831Z,91.70
2023-05-14T03:43:49.137Z,91.60
2023-05-14T03:47:11.704Z,91.60
2023-05-14T03:50:34.069Z,91.60
2023-05-14T03:53:58.027Z,91.60
2023-05-14T03:57:21.033Z,91.60
2023-05-14T04:00:43.775Z,91.60
2023-05-14T04:04:06.705Z,91.60
2023-05-14T04:07:29.098Z,91.60
2023-05-14T04:10:51.607Z,91.70
2023-05-14T04:14:13.847Z,91.60
2023-05-14T04:17:36.351Z,91.60
2023-05-14T04:20:58.695Z,91.60
2023-05-14T04:24:20.922Z,91.70
2023-05-14T04:27:43.186Z,91.60
2023-05-14T04:31:05.642Z,91.70
2023-05-14T04:34:27.873Z,91.60
2023-05-14T04:37:50.445Z,91.60
2023-05-14T04:41:12.681Z,91.60
2023-05-14T04:44:36.238Z,91.60
2023-05-14T04:47:58.547Z,91.60
2023-05-14T04:51:20.831Z,91.50
2023-05-14T04:54:43.128Z,91.50
2023-05-14T04:58:05.384Z,91.50
2023-05-14T05:01:27.809Z,91.50
2023-05-14T05:04:50.078Z,91.50
2023-05-14T05:08:12.405Z,91.50
2023-05-14T05:11:34.668Z,91.50
2023-05-14T05:14:57.552Z,91.40
2023-05-14T05:18:19.854Z,91.40
2023-05-14T05:21:42.208Z,91.50
2023-05-14T05:25:09.067Z,91.50
2023-05-14T05:28:31.419Z,91.50
2023-05-14T05:31:53.901Z,91.50
2023-05-14T05:35:16.361Z,91.50
2023-05-14T05:38:38.602Z,91.50
2023-05-14T05:42:05.394Z,91.50
2023-05-14T05:45:27.702Z,91.50
2023-05-14T05:48:49.952Z,91.40
2023-05-14T05:52:12.246Z,91.50
2023-05-14T05:55:34.468Z,91.50
2023-05-14T05:58:56.747Z,91.50
2023-05-14T06:02:19.592Z,91.50
2023-05-14T06:05:42.057Z,91.70
2023-05-14T06:09:04.750Z,91.80
2023-05-14T06:12:27.054Z,91.70
2023-05-14T06:15:49.394Z,91.50
2023-05-14T06:19:11.796Z,91.70
2023-05-14T06:22:34.591Z,91.60
2023-05-14T06:25:56.924Z,91.90
2023-05-14T06:29:19.237Z,91.90
2023-05-14T06:32:41.553Z,91.80
2023-05-14T06:36:05.922Z,91.90
2023-05-14T06:39:28.235Z,91.90
2023-05-14T06:42:50.560Z,92.30
2023-05-14T06:46:12.876Z,91.90
2023-05-14T06:49:35.858Z,91.90
2023-05-14T06:52:58.127Z,91.90
2023-05-14T06:56:21.982Z,91.90
2023-05-14T06:59:44.227Z,92.00
2023-05-14T07:03:06.622Z,92.10
2023-05-14T07:06:29.050Z,92.10
2023-05-14T07:09:51.388Z,92.30
2023-05-14T07:13:13.685Z,92.30
2023-05-14T07:16:36.372Z,92.50
2023-05-14T07:19:58.671Z,92.50
2023-05-14T07:23:20.902Z,92.60
2023-05-14T07:26:43.149Z,92.40
2023-05-14T07:30:06.153Z,92.40
2023-05-14T07:33:28.381Z,92.40
2023-05-14T07:36:54.094Z,92.40
2023-05-14T07:40:16.486Z,92.40
2023-05-14T07:43:40.453Z,92.30
2023-05-14T07:47:04.193Z,92.50
2023-05-14T07:50:26.745Z,92.50
2023-05-14T07:53:49.067Z,92.30
2023-05-14T07:57:11.337Z,92.40
2023-05-14T08:00:33.684Z,92.40
2023-05-14T08:03:56.419Z,91.40
2023-05-14T08:07:18.805Z,92.20
2023-05-14T08:10:41.132Z,92.60
2023-05-14T08:14:03.324Z,92.60
2023-05-14T08:17:25.775Z,92.30
2023-05-14T08:20:48.410Z,92.50
2023-05-14T08:24:11.405Z,92.80
2023-05-14T08:27:33.889Z,92.50
2023-05-14T08:30:56.148Z,92.00
2023-05-14T08:34:18.396Z,92.00
2023-05-14T08:37:40.689Z,91.90
2023-05-14T08:41:06.288Z,91.80
2023-05-14T08:44:40.285Z,91.60
2023-05-14T08:48:08.846Z,91.50
2023-05-14T08:51:31.654Z,91.60
2023-05-14T08:54:54.076Z,91.80
2023-05-14T08:58:16.536Z,91.70
2023-05-14T09:01:39.805Z,91.70
2023-05-14T09:05:03.802Z,91.60
2023-05-14T09:08:26.072Z,91.60
2023-05-14T09:11:53.055Z,92.00
2023-05-14T09:15:15.433Z,91.70
2023-05-14T09:18:37.829Z,92.00
2023-05-14T09:22:00.279Z,92.50
2023-05-14T09:25:27.100Z,92.30
2023-05-14T09:28:49.316Z,92.90
2023-05-14T09:32:11.591Z,93.10
2023-05-14T09:35:34.014Z,92.60
2023-05-14T09:39:00.573Z,92.40
2023-05-14T09:42:23.109Z,91.80
2023-05-14T09:45:45.442Z,92.50
2023-05-14T09:49:07.975Z,93.30
2023-05-14T09:52:30.818Z,93.20
2023-05-14T09:55:53.043Z,93.30
2023-05-14T09:59:15.404Z,95.30
2023-05-14T10:02:38.872Z,93.80
2023-05-14T10:06:05.565Z,93.90
2023-05-14T10:09:29.737Z,94.00
2023-05-14T10:12:57.152Z,94.50
2023-05-14T10:16:26.241Z,93.90
2023-05-14T10:19:54.618Z,93.70
2023-05-14T10:23:17.358Z,94.60
2023-05-14T10:26:41.982Z,94.00
2023-05-14T10:30:10.243Z,93.30
2023-05-14T10:33:47.961Z,93.40
2023-05-14T10:37:14.722Z,94.10
2023-05-14T10:40:39.049Z,93.10
2023-05-14T10:44:09.919Z,93.30
2023-05-14T10:47:33.357Z,93.10
2023-05-14T10:50:58.689Z,93.40
2023-05-14T10:54:23.594Z,93.10
2023-05-14T10:57:46.925Z,93.30
2023-05-14T11:01:11.518Z,93.50
2023-05-14T11:04:34.095Z,94.20
2023-05-14T11:07:58.154Z,94.30
2023-05-14T11:11:20.638Z,94.60
2023-05-14T11:14:43.032Z,94.60
2023-05-14T11:18:05.550Z,94.50
2023-05-14T11:21:27.937Z,94.40
2023-05-14T11:24:50.691Z,94.60
2023-05-14T11:28:13.094Z,94.60
2023-05-14T11:31:36.062Z,94.00
2023-05-14T11:34:58.489Z,94.00
2023-05-14T11:38:21.338Z,94.10
2023-05-14T11:41:46.828Z,94.50
2023-05-14T11:45:12.606Z,93.30
2023-05-14T11:48:35.203Z,93.30
2023-05-14T11:52:01.843Z,92.70
2023-05-14T11:55:24.274Z,93.20
2023-05-14T11:58:49.775Z,93.70
2023-05-14T12:02:13.949Z,93.30
2023-05-14T12:05:39.197Z,94.40
2023-05-14T12:09:01.723Z,94.40
2023-05-14T12:12:23.968Z,94.20
2023-05-14T12:15:56.167Z,93.30
2023-05-14T12:19:19.768Z,93.90
2023-05-14T12:22:42.779Z,93.80
2023-05-14T12:26:07.001Z,94.00
2023-05-14T12:29:29.382Z,94.20
2023-05-14T12:32:52.863Z,94.50
2023-05-14T12:39:42.484Z,95.20
2023-05-14T12:43:04.751Z,94.50
2023-05-14T12:46:27.982Z,93.90
2023-05-14T12:49:50.909Z,93.90
2023-05-14T12:53:16.259Z,93.90
2023-05-14T12:56:39.088Z,94.10
2023-05-14T13:00:01.732Z,94.10
2023-05-14T13:03:24.098Z,94.10
2023-05-14T13:06:46.411Z,94.00
2023-05-14T13:10:09.350Z,94.00
2023-05-14T13:13:31.545Z,94.10
2023-05-14T13:16:53.822Z,94.20
2023-05-14T13:20:18.303Z,94.20
2023-05-14T13:23:40.665Z,94.10
2023-05-14T13:27:03.062Z,94.10
2023-05-14T13:30:25.713Z,94.40
2023-05-14T13:33:47.935Z,94.80
2023-05-14T13:37:10.936Z,93.50
2023-05-14T13:40:33.520Z,94.20
2023-05-14T13:43:55.965Z,93.80
2023-05-14T13:47:19.434Z,93.80
2023-05-14T13:50:41.676Z,93.90
2023-05-14T13:54:04.257Z,93.30
2023-05-14T13:57:27.014Z,93.10
2023-05-14T14:00:49.473Z,92.70
2023-05-14T14:04:11.715Z,93.40
2023-05-14T14:07:33.982Z,93.60
2023-05-14T14:10:56.259Z,93.00
2023-05-14T14:14:18.768Z,93.90
2023-05-14T14:17:41.820Z,93.50
2023-05-14T14:21:04.389Z,93.10
2023-05-14T14:24:26.905Z,92.50
2023-05-14T14:27:49.334Z,93.50
2023-05-14T14:31:11.872Z,93.40
2023-05-14T14:34:34.170Z,93.40
2023-05-14T14:37:56.512Z,92.80
2023-05-14T14:41:18.818Z,92.40
2023-05-14T14:44:41.508Z,92.40
2023-05-14T14:48:34.051Z,92.50
2023-05-14T14:51:56.367Z,92.40
2023-05-14T14:55:18.596Z,92.30
2023-05-14T14:58:40.889Z,91.80
2023-05-14T15:02:03.496Z,92.80
2023-05-14T15:05:26.026Z,92.90
2023-05-14T15:08:48.500Z,93.20
2023-05-14T15:12:10.930Z,92.70
2023-05-14T15:15:42.339Z,92.70
2023-05-14T15:19:04.623Z,92.90
2023-05-14T15:22:27.103Z,93.00
2023-05-14T15:25:49.966Z,92.90
2023-05-14T15:29:12.439Z,92.70
2023-05-14T15:32:34.759Z,92.40
2023-05-14T15:35:57.087Z,91.70
2023-05-14T15:39:19.361Z,90.40
2023-05-14T15:42:43.694Z,90.50
2023-05-14T15:46:06.105Z,89.60
2023-05-14T15:49:28.386Z,89.00
2023-05-14T15:52:50.915Z,87.70
2023-05-14T15:56:13.239Z,87.30
2023-05-14T15:59:35.608Z,87.90
2023-05-14T16:02:57.846Z,87.70
2023-05-14T16:06:20.135Z,88.20
2023-05-14T16:09:42.614Z,89.70
2023-05-14T16:13:04.954Z,88.40
2023-05-14T16:16:27.422Z,88.10
2023-05-14T16:19:49.734Z,88.30
2023-05-14T16:23:11.959Z,89.00
2023-05-14T16:26:34.280Z,88.80
2023-05-14T16:29:56.483Z,89.20
2023-05-14T16:33:18.704Z,89.40
2023-05-14T16:36:41.198Z,90.40
2023-05-14T16:40:03.846Z,90.30
2023-05-14T16:43:26.312Z,90.30
2023-05-14T16:46:48.596Z,89.90
2023-05-14T16:50:11.147Z,90.10
2023-05-14T16:53:33.404Z,89.70
2023-05-14T16:56:55.863Z,90.20
2023-05-14T17:00:18.250Z,91.40
2023-05-14T17:03:40.927Z,92.70
2023-05-14T17:07:03.868Z,92.80
2023-05-14T17:10:27.049Z,92.80
2023-05-14T17:13:49.253Z,92.70
2023-05-14T17:17:11.506Z,92.80
2023-05-14T17:20:34.050Z,92.40
2023-05-14T17:23:56.295Z,92.20
2023-05-14T17:27:18.510Z,92.60
2023-05-14T17:30:41.236Z,92.60
2023-05-14T17:34:03.555Z,92.80
2023-05-14T17:37:26.374Z,93.00
2023-05-14T17:40:48.615Z,92.90
2023-05-14T17:44:12.933Z,92.90
2023-05-14T17:47:35.678Z,92.60
2023-05-14T17:50:57.921Z,92.10
2023-05-14T17:54:20.168Z,92.10
2023-05-14T17:57:42.467Z,92.20
2023-05-14T18:01:06.069Z,92.10
2023-05-14T18:04:28.515Z,92.20
2023-05-14T18:07:51.075Z,92.60
2023-05-14T18:11:13.297Z,92.60
2023-05-14T18:14:35.690Z,92.60
2023-05-14T18:17:57.900Z,92.80
2023-05-14T18:21:20.171Z,93.10
2023-05-14T18:24:44.162Z,92.80
2023-05-14T18:28:06.682Z,92.90
2023-05-14T18:31:29.057Z,93.00
2023-05-14T18:34:51.374Z,93.10
2023-05-14T18:38:13.955Z,93.20
2023-05-14T18:41:36.274Z,93.00
2023-05-14T18:44:58.516Z,93.00
2023-05-14T18:48:20.904Z,93.50
2023-05-14T18:51:43.177Z,93.90
2023-05-14T18:55:05.854Z,93.80
2023-05-14T18:58:28.214Z,93.80
2023-05-14T19:01:51.370Z,94.20
2023-05-14T19:05:13.702Z,94.40
2023-05-14T19:08:36.174Z,94.60
2023-05-14T19:11:58.853Z,94.70
2023-05-14T19:15:21.211Z,94.50
2023-05-14T19:18:43.711Z,94.60
2023-05-14T19:22:06.775Z,94.10
2023-05-14T19:25:29.537Z,94.00
2023-05-14T19:28:52.889Z,94.00
2023-05-14T19:32:15.360Z,94.00
2023-05-14T19:35:37.686Z,94.10
2023-05-14T19:38:59.956Z,94.00
2023-05-14T19:42:22.285Z,94.00
2023-05-14T19:45:45.876Z,94.00
2023-05-14T19:49:08.189Z,94.00
2023-05-14T19:52:30.535Z,94.10
2023-05-14T19:55:52.784Z,94.00
2023-05-14T19:59:15.663Z,94.00
2023-05-14T20:02:38.088Z,94.10
2023-05-14T20:06:00.509Z,94.10
2023-05-14T20:09:22.979Z,94.20
2023-05-14T20:12:45.240Z,94.30
2023-05-14T20:16:07.753Z,94.10
2023-05-14T20:19:30.608Z,94.00
2023-05-14T20:22:53.455Z,94.00
2023-05-14T20:26:16.262Z,94.00
2023-05-14T20:29:38.503Z,94.00
2023-05-14T20:33:00.856Z,94.00
2023-05-14T20:36:24.381Z,94.00
2023-05-14T20:39:47.027Z,94.20
2023-05-14T20:43:09.375Z,94.00
2023-05-14T20:46:31.645Z,94.20
2023-05-14T20:49:53.933Z,93.70
2023-05-14T20:53:16.177Z,93.80
2023-05-14T20:56:38.442Z,93.10
2023-05-14T21:00:00.712Z,93.40
2023-05-14T21:03:23.073Z,93.50
2023-05-14T21:06:45.755Z,93.50
2023-05-14T21:10:09.799Z,93.50
2023-05-14T21:13:32.568Z,93.60
2023-05-14T21:16:54.805Z,93.40
2023-05-14T21:20:17.098Z,93.50
2023-05-14T21:23:39.462Z,93.40
2023-05-14T21:27:01.785Z,93.40
2023-05-14T21:30:24.094Z,93.40
2023-05-14T21:33:46.384Z,93.40
2023-05-14T21:37:08.710Z,93.40
2023-05-14T21:40:31.327Z,93.40
2023-05-14T21:43:53.736Z,93.40
2023-05-14T21:47:16.496Z,93.30
2023-05-14T21:50:38.732Z,93.20
2023-05-14T21:54:00.979Z,93.30
2023-05-14T21:57:23.257Z,93.30
2023-05-14T22:00:45.539Z,93.20
2023-05-14T22:04:07.834Z,93.20
2023-05-14T22:07:30.161Z,93.10
2023-05-14T22:10:52.422Z,93.00
2023-05-14T22:14:14.766Z,93.00
2023-05-14T22:17:37.799Z,93.00
2023-05-14T22:21:00.021Z,93.00
2023-05-14T22:24:22.518Z,92.90
2023-05-14T22:27:44.822Z,92.90
2023-05-14T22:31:07.054Z,92.90
2023-05-14T22:34:29.368Z,92.90
2023-05-14T22:37:51.612Z,92.80
2023-05-14T22:41:14.000Z,92.80
2023-05-14T22:44:37.107Z,92.80
2023-05-14T22:47:59.508Z,92.80
2023-05-14T22:51:21.919Z,92.80
2023-05-14T22:54:44.350Z,92.80
2023-05-14T22:58:07.336Z,92.80
2023-05-14T23:01:31.017Z,92.80
2023-05-14T23:04:53.374Z,92.80
2023-05-14T23:08:15.740Z,92.80
2023-05-14T23:11:38.404Z,92.80
2023-05-14T23:15:00.777Z,92.80
2023-05-14T23:18:24.059Z,92.80
2023-05-14T23:21:46.398Z,92.80
2023-05-14T23:25:09.257Z,92.70
2023-05-14T23:28:31.714Z,92.70
2023-05-14T23:31:54.028Z,92.70
2023-05-14T23:35:16.458Z,92.60
2023-05-14T23:38:38.985Z,92.60
2023-05-14T23:42:01.307Z,92.60
2023-05-14T23:45:23.656Z,92.60
2023-05-14T23:48:46.001Z,92.60
2023-05-14T23:52:08.422Z,92.70
2023-05-14T23:55:30.874Z,92.60
2023-05-14T23:58:53.321Z,92.60
